sensor_id;sensor_type;location;lat;lon;timestamp;P1;durP1;ratioP1;P2;durP2;ratioP2
9783;SDS011;4931;44.874;-1.092;2023-02-10T00:01:12;122.28;;;49.97;;
9783;SDS011;4931;44.874;-1.092;2023-02-10T00:03:39;100.50;;;43.65;;
9783;SDS011;4931;44.874;-1.092;2023-02-10T00:06:06;86.70;;;37.25;;
9783;SDS011;4931;44.874;-1.092;2023-02-10T00:08:32;63.75;;;27.63;;
9783;SDS011;4931;44.874;-1.092;2023-02-10T00:10:59;76.20;;;31.73;;
9783;SDS011;4931;44.874;-1.092;2023-02-10T00:13:26;59.85;;;26.05;;
9783;SDS011;4931;44.874;-1.092;2023-02-10T00:15:52;80.00;;;32.80;;
9783;SDS011;4931;44.874;-1.092;2023-02-10T00:18:17;88.00;;;35.33;;
9783;SDS011;4931;44.874;-1.092;2023-02-10T00:20:43;77.13;;;32.78;;
9783;SDS011;4931;44.874;-1.092;2023-02-10T00:23:09;61.22;;;27.17;;
9783;SDS011;4931;44.874;-1.092;2023-02-10T00:25:35;66.18;;;26.30;;
9783;SDS011;4931;44.874;-1.092;2023-02-10T00:28:01;58.30;;;26.08;;
9783;SDS011;4931;44.874;-1.092;2023-02-10T00:30:27;53.30;;;24.20;;
9783;SDS011;4931;44.874;-1.092;2023-02-10T00:32:52;51.33;;;24.90;;
9783;SDS011;4931;44.874;-1.092;2023-02-10T00:35:18;64.53;;;29.02;;
9783;SDS011;4931;44.874;-1.092;2023-02-10T00:37:44;54.28;;;25.33;;
9783;SDS011;4931;44.874;-1.092;2023-02-10T00:40:09;79.15;;;37.45;;
9783;SDS011;4931;44.874;-1.092;2023-02-10T00:42:35;86.47;;;39.25;;
9783;SDS011;4931;44.874;-1.092;2023-02-10T00:45:00;79.57;;;34.53;;
9783;SDS011;4931;44.874;-1.092;2023-02-10T00:47:26;69.78;;;30.23;;
9783;SDS011;4931;44.874;-1.092;2023-02-10T00:49:52;62.42;;;26.92;;
9783;SDS011;4931;44.874;-1.092;2023-02-10T00:52:18;73.75;;;34.90;;
9783;SDS011;4931;44.874;-1.092;2023-02-10T00:54:44;120.60;;;54.63;;
9783;SDS011;4931;44.874;-1.092;2023-02-10T00:57:09;91.75;;;42.85;;
9783;SDS011;4931;44.874;-1.092;2023-02-10T00:59:35;108.35;;;51.03;;
9783;SDS011;4931;44.874;-1.092;2023-02-10T01:02:00;132.88;;;60.75;;
9783;SDS011;4931;44.874;-1.092;2023-02-10T01:04:26;123.15;;;55.72;;
9783;SDS011;4931;44.874;-1.092;2023-02-10T01:06:51;110.95;;;50.05;;
9783;SDS011;4931;44.874;-1.092;2023-02-10T01:09:17;76.88;;;32.05;;
9783;SDS011;4931;44.874;-1.092;2023-02-10T01:11:43;69.95;;;27.88;;
9783;SDS011;4931;44.874;-1.092;2023-02-10T01:14:09;71.88;;;28.80;;
9783;SDS011;4931;44.874;-1.092;2023-02-10T01:16:35;58.25;;;25.20;;
9783;SDS011;4931;44.874;-1.092;2023-02-10T01:19:01;57.10;;;23.70;;
9783;SDS011;4931;44.874;-1.092;2023-02-10T01:21:26;56.78;;;25.83;;
9783;SDS011;4931;44.874;-1.092;2023-02-10T01:23:52;63.15;;;28.77;;
9783;SDS011;4931;44.874;-1.092;2023-02-10T01:26:18;58.50;;;24.52;;
9783;SDS011;4931;44.874;-1.092;2023-02-10T01:28:43;63.50;;;29.35;;
9783;SDS011;4931;44.874;-1.092;2023-02-10T01:31:27;53.92;;;22.20;;
9783;SDS011;4931;44.874;-1.092;2023-02-10T01:33:53;47.88;;;17.02;;
9783;SDS011;4931;44.874;-1.092;2023-02-10T01:36:21;44.78;;;17.40;;
9783;SDS011;4931;44.874;-1.092;2023-02-10T01:38:48;46.00;;;17.73;;
9783;SDS011;4931;44.874;-1.092;2023-02-10T01:41:15;47.13;;;17.40;;
9783;SDS011;4931;44.874;-1.092;2023-02-10T01:43:59;42.05;;;17.30;;
9783;SDS011;4931;44.874;-1.092;2023-02-10T01:46:25;51.90;;;19.88;;
9783;SDS011;4931;44.874;-1.092;2023-02-10T01:48:51;43.67;;;17.98;;
9783;SDS011;4931;44.874;-1.092;2023-02-10T01:51:18;41.15;;;17.58;;
9783;SDS011;4931;44.874;-1.092;2023-02-10T01:53:46;42.55;;;17.83;;
9783;SDS011;4931;44.874;-1.092;2023-02-10T01:56:13;44.03;;;18.17;;
9783;SDS011;4931;44.874;-1.092;2023-02-10T01:58:40;40.10;;;16.05;;
9783;SDS011;4931;44.874;-1.092;2023-02-10T02:01:06;33.95;;;15.88;;
9783;SDS011;4931;44.874;-1.092;2023-02-10T02:03:32;37.10;;;17.25;;
9783;SDS011;4931;44.874;-1.092;2023-02-10T02:05:58;37.15;;;17.05;;
9783;SDS011;4931;44.874;-1.092;2023-02-10T02:08:25;34.53;;;15.75;;
9783;SDS011;4931;44.874;-1.092;2023-02-10T02:11:04;37.58;;;17.58;;
9783;SDS011;4931;44.874;-1.092;2023-02-10T02:14:00;36.55;;;16.38;;
9783;SDS011;4931;44.874;-1.092;2023-02-10T02:24:21;32.05;;;14.38;;
9783;SDS011;4931;44.874;-1.092;2023-02-10T02:32:57;50.22;;;20.67;;
9783;SDS011;4931;44.874;-1.092;2023-02-10T02:38:13;51.75;;;19.33;;
9783;SDS011;4931;44.874;-1.092;2023-02-10T02:40:38;52.30;;;20.33;;
9783;SDS011;4931;44.874;-1.092;2023-02-10T02:43:04;49.25;;;18.83;;
9783;SDS011;4931;44.874;-1.092;2023-02-10T02:54:05;46.08;;;18.10;;
9783;SDS011;4931;44.874;-1.092;2023-02-10T02:59:39;35.55;;;14.85;;
9783;SDS011;4931;44.874;-1.092;2023-02-10T03:02:13;35.67;;;15.63;;
9783;SDS011;4931;44.874;-1.092;2023-02-10T03:04:40;37.55;;;16.35;;
9783;SDS011;4931;44.874;-1.092;2023-02-10T03:07:07;46.25;;;17.55;;
9783;SDS011;4931;44.874;-1.092;2023-02-10T03:09:33;38.25;;;15.98;;
9783;SDS011;4931;44.874;-1.092;2023-02-10T03:11:59;33.95;;;15.65;;
9783;SDS011;4931;44.874;-1.092;2023-02-10T03:14:25;35.55;;;15.77;;
9783;SDS011;4931;44.874;-1.092;2023-02-10T03:16:50;34.85;;;15.45;;
9783;SDS011;4931;44.874;-1.092;2023-02-10T03:19:16;37.63;;;15.40;;
9783;SDS011;4931;44.874;-1.092;2023-02-10T03:21:41;38.72;;;16.10;;
9783;SDS011;4931;44.874;-1.092;2023-02-10T03:24:07;50.72;;;19.35;;
9783;SDS011;4931;44.874;-1.092;2023-02-10T03:26:34;46.60;;;19.42;;
9783;SDS011;4931;44.874;-1.092;2023-02-10T03:29:00;46.15;;;20.15;;
9783;SDS011;4931;44.874;-1.092;2023-02-10T03:31:27;47.28;;;19.52;;
9783;SDS011;4931;44.874;-1.092;2023-02-10T03:33:52;48.75;;;19.67;;
9783;SDS011;4931;44.874;-1.092;2023-02-10T03:36:18;50.78;;;22.23;;
9783;SDS011;4931;44.874;-1.092;2023-02-10T03:38:43;52.83;;;22.30;;
9783;SDS011;4931;44.874;-1.092;2023-02-10T03:41:10;50.40;;;21.25;;
9783;SDS011;4931;44.874;-1.092;2023-02-10T03:43:36;48.50;;;20.92;;
9783;SDS011;4931;44.874;-1.092;2023-02-10T03:46:02;55.10;;;21.17;;
9783;SDS011;4931;44.874;-1.092;2023-02-10T03:48:29;53.22;;;19.75;;
9783;SDS011;4931;44.874;-1.092;2023-02-10T03:50:57;53.58;;;21.27;;
9783;SDS011;4931;44.874;-1.092;2023-02-10T03:53:23;68.25;;;23.23;;
9783;SDS011;4931;44.874;-1.092;2023-02-10T03:55:49;65.13;;;25.05;;
9783;SDS011;4931;44.874;-1.092;2023-02-10T03:58:14;62.47;;;23.95;;
9783;SDS011;4931;44.874;-1.092;2023-02-10T04:00:40;62.90;;;23.55;;
9783;SDS011;4931;44.874;-1.092;2023-02-10T04:03:05;51.28;;;20.00;;
9783;SDS011;4931;44.874;-1.092;2023-02-10T04:05:31;49.80;;;20.58;;
9783;SDS011;4931;44.874;-1.092;2023-02-10T04:07:56;48.95;;;18.98;;
9783;SDS011;4931;44.874;-1.092;2023-02-10T04:10:22;51.55;;;19.63;;
9783;SDS011;4931;44.874;-1.092;2023-02-10T04:12:47;52.17;;;21.65;;
9783;SDS011;4931;44.874;-1.092;2023-02-10T04:15:13;57.15;;;20.98;;
9783;SDS011;4931;44.874;-1.092;2023-02-10T04:17:38;50.78;;;20.63;;
9783;SDS011;4931;44.874;-1.092;2023-02-10T04:20:04;54.75;;;21.58;;
9783;SDS011;4931;44.874;-1.092;2023-02-10T04:22:30;53.70;;;21.02;;
9783;SDS011;4931;44.874;-1.092;2023-02-10T04:24:56;51.50;;;20.80;;
9783;SDS011;4931;44.874;-1.092;2023-02-10T04:27:21;47.13;;;20.35;;
9783;SDS011;4931;44.874;-1.092;2023-02-10T04:29:47;53.65;;;21.75;;
9783;SDS011;4931;44.874;-1.092;2023-02-10T04:32:12;70.13;;;22.98;;
9783;SDS011;4931;44.874;-1.092;2023-02-10T04:34:38;55.20;;;22.85;;
9783;SDS011;4931;44.874;-1.092;2023-02-10T04:37:03;56.85;;;23.08;;
9783;SDS011;4931;44.874;-1.092;2023-02-10T04:39:28;58.05;;;24.73;;
9783;SDS011;4931;44.874;-1.092;2023-02-10T04:41:54;53.83;;;23.90;;
9783;SDS011;4931;44.874;-1.092;2023-02-10T04:44:19;56.90;;;24.98;;
9783;SDS011;4931;44.874;-1.092;2023-02-10T04:46:45;55.38;;;23.10;;
9783;SDS011;4931;44.874;-1.092;2023-02-10T04:49:10;50.95;;;22.98;;
9783;SDS011;4931;44.874;-1.092;2023-02-10T04:51:36;55.65;;;24.27;;
9783;SDS011;4931;44.874;-1.092;2023-02-10T04:54:01;45.63;;;22.30;;
9783;SDS011;4931;44.874;-1.092;2023-02-10T04:56:27;50.08;;;21.88;;
9783;SDS011;4931;44.874;-1.092;2023-02-10T04:58:52;50.38;;;21.52;;
9783;SDS011;4931;44.874;-1.092;2023-02-10T05:01:18;42.15;;;21.20;;
9783;SDS011;4931;44.874;-1.092;2023-02-10T05:03:43;40.50;;;20.65;;
9783;SDS011;4931;44.874;-1.092;2023-02-10T05:06:10;44.15;;;22.00;;
9783;SDS011;4931;44.874;-1.092;2023-02-10T05:08:37;55.88;;;25.60;;
9783;SDS011;4931;44.874;-1.092;2023-02-10T05:11:07;55.90;;;28.13;;
9783;SDS011;4931;44.874;-1.092;2023-02-10T05:13:33;51.42;;;25.05;;
9783;SDS011;4931;44.874;-1.092;2023-02-10T05:15:58;78.57;;;29.23;;
9783;SDS011;4931;44.874;-1.092;2023-02-10T05:18:27;87.60;;;32.55;;
9783;SDS011;4931;44.874;-1.092;2023-02-10T05:20:52;68.55;;;29.80;;
9783;SDS011;4931;44.874;-1.092;2023-02-10T05:23:17;70.68;;;30.15;;
9783;SDS011;4931;44.874;-1.092;2023-02-10T05:25:43;65.70;;;29.60;;
9783;SDS011;4931;44.874;-1.092;2023-02-10T05:28:08;76.88;;;28.88;;
9783;SDS011;4931;44.874;-1.092;2023-02-10T05:30:34;117.15;;;37.33;;
9783;SDS011;4931;44.874;-1.092;2023-02-10T05:32:59;96.85;;;34.15;;
9783;SDS011;4931;44.874;-1.092;2023-02-10T05:35:25;97.88;;;32.50;;
9783;SDS011;4931;44.874;-1.092;2023-02-10T05:37:50;128.45;;;35.80;;
9783;SDS011;4931;44.874;-1.092;2023-02-10T05:40:15;61.45;;;25.42;;
9783;SDS011;4931;44.874;-1.092;2023-02-10T05:42:41;49.95;;;21.50;;
9783;SDS011;4931;44.874;-1.092;2023-02-10T05:45:06;37.40;;;17.42;;
9783;SDS011;4931;44.874;-1.092;2023-02-10T05:47:32;37.78;;;18.38;;
9783;SDS011;4931;44.874;-1.092;2023-02-10T05:49:58;34.70;;;17.13;;
9783;SDS011;4931;44.874;-1.092;2023-02-10T05:52:23;33.00;;;16.15;;
9783;SDS011;4931;44.874;-1.092;2023-02-10T05:54:48;38.65;;;17.02;;
9783;SDS011;4931;44.874;-1.092;2023-02-10T05:57:14;40.30;;;17.92;;
9783;SDS011;4931;44.874;-1.092;2023-02-10T05:59:40;37.42;;;17.50;;
9783;SDS011;4931;44.874;-1.092;2023-02-10T06:02:06;37.35;;;17.88;;
9783;SDS011;4931;44.874;-1.092;2023-02-10T06:04:32;37.85;;;17.40;;
9783;SDS011;4931;44.874;-1.092;2023-02-10T06:06:58;40.17;;;17.88;;
9783;SDS011;4931;44.874;-1.092;2023-02-10T06:09:23;44.17;;;20.40;;
9783;SDS011;4931;44.874;-1.092;2023-02-10T06:11:50;50.45;;;22.58;;
9783;SDS011;4931;44.874;-1.092;2023-02-10T06:14:16;67.72;;;29.23;;
9783;SDS011;4931;44.874;-1.092;2023-02-10T06:16:42;52.67;;;25.48;;
9783;SDS011;4931;44.874;-1.092;2023-02-10T06:19:07;43.05;;;19.77;;
9783;SDS011;4931;44.874;-1.092;2023-02-10T06:21:32;43.67;;;21.52;;
9783;SDS011;4931;44.874;-1.092;2023-02-10T06:23:58;56.42;;;25.58;;
9783;SDS011;4931;44.874;-1.092;2023-02-10T06:26:23;73.05;;;34.70;;
9783;SDS011;4931;44.874;-1.092;2023-02-10T06:28:49;81.13;;;39.22;;
9783;SDS011;4931;44.874;-1.092;2023-02-10T06:31:14;75.68;;;34.40;;
9783;SDS011;4931;44.874;-1.092;2023-02-10T06:33:40;69.28;;;32.55;;
9783;SDS011;4931;44.874;-1.092;2023-02-10T06:36:05;81.43;;;37.88;;
9783;SDS011;4931;44.874;-1.092;2023-02-10T06:38:33;66.57;;;31.63;;
9783;SDS011;4931;44.874;-1.092;2023-02-10T06:40:59;69.10;;;31.65;;
9783;SDS011;4931;44.874;-1.092;2023-02-10T06:43:25;69.22;;;29.75;;
9783;SDS011;4931;44.874;-1.092;2023-02-10T06:45:50;66.22;;;28.00;;
9783;SDS011;4931;44.874;-1.092;2023-02-10T06:48:16;63.78;;;28.70;;
9783;SDS011;4931;44.874;-1.092;2023-02-10T06:50:41;53.75;;;25.92;;
9783;SDS011;4931;44.874;-1.092;2023-02-10T06:53:07;59.17;;;26.83;;
9783;SDS011;4931;44.874;-1.092;2023-02-10T06:55:33;59.88;;;26.40;;
9783;SDS011;4931;44.874;-1.092;2023-02-10T06:57:59;66.55;;;29.70;;
9783;SDS011;4931;44.874;-1.092;2023-02-10T07:00:25;55.35;;;25.73;;
9783;SDS011;4931;44.874;-1.092;2023-02-10T07:02:50;61.78;;;28.35;;
9783;SDS011;4931;44.874;-1.092;2023-02-10T07:05:16;65.70;;;30.35;;
9783;SDS011;4931;44.874;-1.092;2023-02-10T07:07:42;73.50;;;31.52;;
9783;SDS011;4931;44.874;-1.092;2023-02-10T07:10:07;57.38;;;27.55;;
9783;SDS011;4931;44.874;-1.092;2023-02-10T07:12:33;83.95;;;35.72;;
9783;SDS011;4931;44.874;-1.092;2023-02-10T07:14:59;89.45;;;41.08;;
9783;SDS011;4931;44.874;-1.092;2023-02-10T07:17:25;115.15;;;51.30;;
9783;SDS011;4931;44.874;-1.092;2023-02-10T07:19:50;91.22;;;42.20;;
9783;SDS011;4931;44.874;-1.092;2023-02-10T07:22:16;84.28;;;37.92;;
9783;SDS011;4931;44.874;-1.092;2023-02-10T07:24:41;95.68;;;55.78;;
9783;SDS011;4931;44.874;-1.092;2023-02-10T07:27:06;93.07;;;44.05;;
9783;SDS011;4931;44.874;-1.092;2023-02-10T07:29:32;94.22;;;44.78;;
9783;SDS011;4931;44.874;-1.092;2023-02-10T07:31:57;64.40;;;28.67;;
9783;SDS011;4931;44.874;-1.092;2023-02-10T07:34:23;53.88;;;26.30;;
9783;SDS011;4931;44.874;-1.092;2023-02-10T07:36:49;53.13;;;26.27;;
9783;SDS011;4931;44.874;-1.092;2023-02-10T07:39:21;55.75;;;26.60;;
9783;SDS011;4931;44.874;-1.092;2023-02-10T07:41:47;52.17;;;26.15;;
9783;SDS011;4931;44.874;-1.092;2023-02-10T07:44:13;48.13;;;23.55;;
9783;SDS011;4931;44.874;-1.092;2023-02-10T07:46:38;104.15;;;50.72;;
9783;SDS011;4931;44.874;-1.092;2023-02-10T07:49:04;125.25;;;61.10;;
9783;SDS011;4931;44.874;-1.092;2023-02-10T07:51:29;75.20;;;35.15;;
9783;SDS011;4931;44.874;-1.092;2023-02-10T07:53:55;61.80;;;28.52;;
9783;SDS011;4931;44.874;-1.092;2023-02-10T07:56:20;60.70;;;28.17;;
9783;SDS011;4931;44.874;-1.092;2023-02-10T07:58:45;58.45;;;26.58;;
9783;SDS011;4931;44.874;-1.092;2023-02-10T08:01:11;58.75;;;29.08;;
9783;SDS011;4931;44.874;-1.092;2023-02-10T08:03:36;70.43;;;31.42;;
9783;SDS011;4931;44.874;-1.092;2023-02-10T08:06:02;92.90;;;41.55;;
9783;SDS011;4931;44.874;-1.092;2023-02-10T08:08:28;105.32;;;42.00;;
9783;SDS011;4931;44.874;-1.092;2023-02-10T08:10:54;106.03;;;44.58;;
9783;SDS011;4931;44.874;-1.092;2023-02-10T08:13:20;113.20;;;47.10;;
9783;SDS011;4931;44.874;-1.092;2023-02-10T08:15:45;128.90;;;54.08;;
9783;SDS011;4931;44.874;-1.092;2023-02-10T08:18:11;142.15;;;61.15;;
9783;SDS011;4931;44.874;-1.092;2023-02-10T08:20:36;102.50;;;44.45;;
9783;SDS011;4931;44.874;-1.092;2023-02-10T08:23:02;95.90;;;48.40;;
9783;SDS011;4931;44.874;-1.092;2023-02-10T08:25:28;89.15;;;40.13;;
9783;SDS011;4931;44.874;-1.092;2023-02-10T08:27:53;71.55;;;34.50;;
9783;SDS011;4931;44.874;-1.092;2023-02-10T08:30:19;73.75;;;31.27;;
9783;SDS011;4931;44.874;-1.092;2023-02-10T08:32:44;64.70;;;30.92;;
9783;SDS011;4931;44.874;-1.092;2023-02-10T08:35:10;78.32;;;35.20;;
9783;SDS011;4931;44.874;-1.092;2023-02-10T08:37:36;86.25;;;41.20;;
9783;SDS011;4931;44.874;-1.092;2023-02-10T08:40:02;78.07;;;38.33;;
9783;SDS011;4931;44.874;-1.092;2023-02-10T08:42:30;71.40;;;34.50;;
9783;SDS011;4931;44.874;-1.092;2023-02-10T08:44:57;75.93;;;33.70;;
9783;SDS011;4931;44.874;-1.092;2023-02-10T08:47:22;82.68;;;37.70;;
9783;SDS011;4931;44.874;-1.092;2023-02-10T08:49:48;83.85;;;36.60;;
9783;SDS011;4931;44.874;-1.092;2023-02-10T08:52:13;87.43;;;40.47;;
9783;SDS011;4931;44.874;-1.092;2023-02-10T08:54:39;129.18;;;52.28;;
9783;SDS011;4931;44.874;-1.092;2023-02-10T08:57:05;129.65;;;54.20;;
9783;SDS011;4931;44.874;-1.092;2023-02-10T08:59:30;115.30;;;48.78;;
9783;SDS011;4931;44.874;-1.092;2023-02-10T09:01:56;82.55;;;37.03;;
9783;SDS011;4931;44.874;-1.092;2023-02-10T09:04:21;75.18;;;33.97;;
9783;SDS011;4931;44.874;-1.092;2023-02-10T09:06:47;62.70;;;30.17;;
9783;SDS011;4931;44.874;-1.092;2023-02-10T09:09:14;64.07;;;28.52;;
9783;SDS011;4931;44.874;-1.092;2023-02-10T09:11:44;58.38;;;29.73;;
9783;SDS011;4931;44.874;-1.092;2023-02-10T09:14:10;71.07;;;34.67;;
9783;SDS011;4931;44.874;-1.092;2023-02-10T09:16:36;64.30;;;31.88;;
9783;SDS011;4931;44.874;-1.092;2023-02-10T09:19:01;60.67;;;30.30;;
9783;SDS011;4931;44.874;-1.092;2023-02-10T09:21:27;62.88;;;29.77;;
9783;SDS011;4931;44.874;-1.092;2023-02-10T09:23:53;57.97;;;29.25;;
9783;SDS011;4931;44.874;-1.092;2023-02-10T09:26:18;62.80;;;30.65;;
9783;SDS011;4931;44.874;-1.092;2023-02-10T09:28:44;61.67;;;30.45;;
9783;SDS011;4931;44.874;-1.092;2023-02-10T09:31:13;57.22;;;28.70;;
9783;SDS011;4931;44.874;-1.092;2023-02-10T09:33:41;55.50;;;28.83;;
9783;SDS011;4931;44.874;-1.092;2023-02-10T09:36:09;56.22;;;27.52;;
9783;SDS011;4931;44.874;-1.092;2023-02-10T09:38:38;57.58;;;28.67;;
9783;SDS011;4931;44.874;-1.092;2023-02-10T09:41:16;47.45;;;26.30;;
9783;SDS011;4931;44.874;-1.092;2023-02-10T09:44:05;48.83;;;25.50;;
9783;SDS011;4931;44.874;-1.092;2023-02-10T09:54:37;44.58;;;22.98;;
9783;SDS011;4931;44.874;-1.092;2023-02-10T09:57:29;45.30;;;23.27;;
9783;SDS011;4931;44.874;-1.092;2023-02-10T10:00:30;38.63;;;21.23;;
9783;SDS011;4931;44.874;-1.092;2023-02-10T10:03:06;42.80;;;22.27;;
9783;SDS011;4931;44.874;-1.092;2023-02-10T10:05:47;40.75;;;21.48;;
9783;SDS011;4931;44.874;-1.092;2023-02-10T10:11:00;63.85;;;39.42;;
9783;SDS011;4931;44.874;-1.092;2023-02-10T10:13:30;60.60;;;39.10;;
9783;SDS011;4931;44.874;-1.092;2023-02-10T10:18:34;33.75;;;17.75;;
9783;SDS011;4931;44.874;-1.092;2023-02-10T10:35:15;32.55;;;15.98;;
9783;SDS011;4931;44.874;-1.092;2023-02-10T10:37:53;28.52;;;16.40;;
9783;SDS011;4931;44.874;-1.092;2023-02-10T10:40:22;27.35;;;15.20;;
9783;SDS011;4931;44.874;-1.092;2023-02-10T10:42:53;28.98;;;17.80;;
9783;SDS011;4931;44.874;-1.092;2023-02-10T10:45:35;24.27;;;14.82;;
9783;SDS011;4931;44.874;-1.092;2023-02-10T10:50:32;38.13;;;20.15;;
9783;SDS011;4931;44.874;-1.092;2023-02-10T10:52:58;31.70;;;15.70;;
9783;SDS011;4931;44.874;-1.092;2023-02-10T10:55:38;28.30;;;13.98;;
9783;SDS011;4931;44.874;-1.092;2023-02-10T10:58:10;26.35;;;13.20;;
9783;SDS011;4931;44.874;-1.092;2023-02-10T11:00:49;22.90;;;13.00;;
9783;SDS011;4931;44.874;-1.092;2023-02-10T11:03:16;27.75;;;13.32;;
9783;SDS011;4931;44.874;-1.092;2023-02-10T11:05:42;26.10;;;13.35;;
9783;SDS011;4931;44.874;-1.092;2023-02-10T11:08:22;26.58;;;12.10;;
9783;SDS011;4931;44.874;-1.092;2023-02-10T11:10:53;21.67;;;12.15;;
9783;SDS011;4931;44.874;-1.092;2023-02-10T11:13:22;26.17;;;11.05;;
9783;SDS011;4931;44.874;-1.092;2023-02-10T11:18:35;69.70;;;47.45;;
9783;SDS011;4931;44.874;-1.092;2023-02-10T11:21:05;26.48;;;14.52;;
9783;SDS011;4931;44.874;-1.092;2023-02-10T11:23:46;17.38;;;9.13;;
9783;SDS011;4931;44.874;-1.092;2023-02-10T11:28:47;16.08;;;9.10;;
9783;SDS011;4931;44.874;-1.092;2023-02-10T11:31:34;20.27;;;10.00;;
9783;SDS011;4931;44.874;-1.092;2023-02-10T11:36:34;27.48;;;11.10;;
9783;SDS011;4931;44.874;-1.092;2023-02-10T11:39:03;59.72;;;38.95;;
9783;SDS011;4931;44.874;-1.092;2023-02-10T11:41:31;16.70;;;8.10;;
9783;SDS011;4931;44.874;-1.092;2023-02-10T11:43:59;15.85;;;6.72;;
9783;SDS011;4931;44.874;-1.092;2023-02-10T11:46:27;14.27;;;7.03;;
9783;SDS011;4931;44.874;-1.092;2023-02-10T11:48:56;30.48;;;19.92;;
9783;SDS011;4931;44.874;-1.092;2023-02-10T11:51:27;25.58;;;17.00;;
9783;SDS011;4931;44.874;-1.092;2023-02-10T11:53:54;19.52;;;10.68;;
9783;SDS011;4931;44.874;-1.092;2023-02-10T12:05:42;18.55;;;6.35;;
9783;SDS011;4931;44.874;-1.092;2023-02-10T12:10:57;14.25;;;6.20;;
9783;SDS011;4931;44.874;-1.092;2023-02-10T12:16:18;11.90;;;5.10;;
9783;SDS011;4931;44.874;-1.092;2023-02-10T12:18:59;10.23;;;5.18;;
9783;SDS011;4931;44.874;-1.092;2023-02-10T12:21:39;11.20;;;5.30;;
9783;SDS011;4931;44.874;-1.092;2023-02-10T12:29:28;10.35;;;5.00;;
9783;SDS011;4931;44.874;-1.092;2023-02-10T12:32:00;12.45;;;5.45;;
9783;SDS011;4931;44.874;-1.092;2023-02-10T12:37:17;13.48;;;6.05;;
9783;SDS011;4931;44.874;-1.092;2023-02-10T12:45:45;10.25;;;5.22;;
9783;SDS011;4931;44.874;-1.092;2023-02-10T12:53:20;12.93;;;5.40;;
9783;SDS011;4931;44.874;-1.092;2023-02-10T12:55:55;11.52;;;5.47;;
9783;SDS011;4931;44.874;-1.092;2023-02-10T12:58:41;9.30;;;4.85;;
9783;SDS011;4931;44.874;-1.092;2023-02-10T13:01:30;18.40;;;11.02;;
9783;SDS011;4931;44.874;-1.092;2023-02-10T13:04:36;15.50;;;6.85;;
9783;SDS011;4931;44.874;-1.092;2023-02-10T13:12:41;10.25;;;5.22;;
9783;SDS011;4931;44.874;-1.092;2023-02-10T13:15:21;10.38;;;4.78;;
9783;SDS011;4931;44.874;-1.092;2023-02-10T13:17:54;13.70;;;4.60;;
9783;SDS011;4931;44.874;-1.092;2023-02-10T13:20:26;13.63;;;5.63;;
9783;SDS011;4931;44.874;-1.092;2023-02-10T13:34:02;13.80;;;6.55;;
9783;SDS011;4931;44.874;-1.092;2023-02-10T13:36:38;14.20;;;5.80;;
9783;SDS011;4931;44.874;-1.092;2023-02-10T13:41:46;12.00;;;6.00;;
9783;SDS011;4931;44.874;-1.092;2023-02-10T13:44:25;12.02;;;5.53;;
9783;SDS011;4931;44.874;-1.092;2023-02-10T13:49:33;14.80;;;6.03;;
9783;SDS011;4931;44.874;-1.092;2023-02-10T13:52:11;12.77;;;5.85;;
9783;SDS011;4931;44.874;-1.092;2023-02-10T13:54:39;12.43;;;6.43;;
9783;SDS011;4931;44.874;-1.092;2023-02-10T13:57:05;17.00;;;6.38;;
9783;SDS011;4931;44.874;-1.092;2023-02-10T13:59:47;15.10;;;6.28;;
9783;SDS011;4931;44.874;-1.092;2023-02-10T14:02:17;12.35;;;6.25;;
9783;SDS011;4931;44.874;-1.092;2023-02-10T14:04:46;19.23;;;10.60;;
9783;SDS011;4931;44.874;-1.092;2023-02-10T14:07:38;18.48;;;7.88;;
9783;SDS011;4931;44.874;-1.092;2023-02-10T14:13:21;13.40;;;7.15;;
9783;SDS011;4931;44.874;-1.092;2023-02-10T14:18:43;11.40;;;6.53;;
9783;SDS011;4931;44.874;-1.092;2023-02-10T14:21:20;12.55;;;5.85;;
9783;SDS011;4931;44.874;-1.092;2023-02-10T14:23:53;19.42;;;7.72;;
9783;SDS011;4931;44.874;-1.092;2023-02-10T14:26:32;13.40;;;6.90;;
9783;SDS011;4931;44.874;-1.092;2023-02-10T14:29:00;22.55;;;8.23;;
9783;SDS011;4931;44.874;-1.092;2023-02-10T14:31:31;12.55;;;6.55;;
9783;SDS011;4931;44.874;-1.092;2023-02-10T14:34:02;13.07;;;5.97;;
9783;SDS011;4931;44.874;-1.092;2023-02-10T14:36:30;16.42;;;6.68;;
9783;SDS011;4931;44.874;-1.092;2023-02-10T14:38:57;11.18;;;6.63;;
9783;SDS011;4931;44.874;-1.092;2023-02-10T14:41:24;12.23;;;5.95;;
9783;SDS011;4931;44.874;-1.092;2023-02-10T14:43:52;21.63;;;9.27;;
9783;SDS011;4931;44.874;-1.092;2023-02-10T14:46:20;12.48;;;6.00;;
9783;SDS011;4931;44.874;-1.092;2023-02-10T14:48:47;14.27;;;5.63;;
9783;SDS011;4931;44.874;-1.092;2023-02-10T14:51:20;14.23;;;5.57;;
9783;SDS011;4931;44.874;-1.092;2023-02-10T14:53:48;11.85;;;6.30;;
9783;SDS011;4931;44.874;-1.092;2023-02-10T14:56:35;15.07;;;6.35;;
9783;SDS011;4931;44.874;-1.092;2023-02-10T14:59:00;13.93;;;5.93;;
9783;SDS011;4931;44.874;-1.092;2023-02-10T15:01:26;27.17;;;12.88;;
9783;SDS011;4931;44.874;-1.092;2023-02-10T15:03:54;23.23;;;10.55;;
9783;SDS011;4931;44.874;-1.092;2023-02-10T15:06:23;15.52;;;5.97;;
9783;SDS011;4931;44.874;-1.092;2023-02-10T15:08:53;12.82;;;6.43;;
9783;SDS011;4931;44.874;-1.092;2023-02-10T15:11:30;13.18;;;6.07;;
9783;SDS011;4931;44.874;-1.092;2023-02-10T15:14:19;13.85;;;5.55;;
9783;SDS011;4931;44.874;-1.092;2023-02-10T15:16:49;16.10;;;6.32;;
9783;SDS011;4931;44.874;-1.092;2023-02-10T15:19:16;12.77;;;6.30;;
9783;SDS011;4931;44.874;-1.092;2023-02-10T15:21:43;11.25;;;6.53;;
9783;SDS011;4931;44.874;-1.092;2023-02-10T15:27:12;12.73;;;5.57;;
9783;SDS011;4931;44.874;-1.092;2023-02-10T15:29:40;13.45;;;6.28;;
9783;SDS011;4931;44.874;-1.092;2023-02-10T15:32:16;13.77;;;6.18;;
9783;SDS011;4931;44.874;-1.092;2023-02-10T15:34:43;18.17;;;5.70;;
9783;SDS011;4931;44.874;-1.092;2023-02-10T15:37:21;15.15;;;5.93;;
9783;SDS011;4931;44.874;-1.092;2023-02-10T15:39:56;13.02;;;6.35;;
9783;SDS011;4931;44.874;-1.092;2023-02-10T15:42:26;18.77;;;6.72;;
9783;SDS011;4931;44.874;-1.092;2023-02-10T15:45:10;14.95;;;6.10;;
9783;SDS011;4931;44.874;-1.092;2023-02-10T15:47:43;18.73;;;6.57;;
9783;SDS011;4931;44.874;-1.092;2023-02-10T15:50:10;13.80;;;6.18;;
9783;SDS011;4931;44.874;-1.092;2023-02-10T15:52:44;13.45;;;7.20;;
9783;SDS011;4931;44.874;-1.092;2023-02-10T15:57:44;13.25;;;6.90;;
9783;SDS011;4931;44.874;-1.092;2023-02-10T16:00:32;13.30;;;5.95;;
9783;SDS011;4931;44.874;-1.092;2023-02-10T16:03:00;15.13;;;7.45;;
9783;SDS011;4931;44.874;-1.092;2023-02-10T16:05:26;15.82;;;6.55;;
9783;SDS011;4931;44.874;-1.092;2023-02-10T16:07:53;14.68;;;6.30;;
9783;SDS011;4931;44.874;-1.092;2023-02-10T16:10:29;13.50;;;6.00;;
9783;SDS011;4931;44.874;-1.092;2023-02-10T16:12:55;15.20;;;6.57;;
9783;SDS011;4931;44.874;-1.092;2023-02-10T16:15:21;14.52;;;6.25;;
9783;SDS011;4931;44.874;-1.092;2023-02-10T16:17:52;17.27;;;5.90;;
9783;SDS011;4931;44.874;-1.092;2023-02-10T16:20:21;13.95;;;6.55;;
9783;SDS011;4931;44.874;-1.092;2023-02-10T16:22:49;17.33;;;6.70;;
9783;SDS011;4931;44.874;-1.092;2023-02-10T16:25:16;13.73;;;6.05;;
9783;SDS011;4931;44.874;-1.092;2023-02-10T16:27:43;14.30;;;5.97;;
9783;SDS011;4931;44.874;-1.092;2023-02-10T16:30:13;12.80;;;6.03;;
9783;SDS011;4931;44.874;-1.092;2023-02-10T16:32:42;12.77;;;6.13;;
9783;SDS011;4931;44.874;-1.092;2023-02-10T16:35:07;10.15;;;5.32;;
9783;SDS011;4931;44.874;-1.092;2023-02-10T16:37:33;15.00;;;6.43;;
9783;SDS011;4931;44.874;-1.092;2023-02-10T16:39:58;11.10;;;5.57;;
9783;SDS011;4931;44.874;-1.092;2023-02-10T16:42:24;12.68;;;5.95;;
9783;SDS011;4931;44.874;-1.092;2023-02-10T16:44:49;11.95;;;5.78;;
9783;SDS011;4931;44.874;-1.092;2023-02-10T16:47:16;12.55;;;5.82;;
9783;SDS011;4931;44.874;-1.092;2023-02-10T16:49:44;16.45;;;6.35;;
9783;SDS011;4931;44.874;-1.092;2023-02-10T16:52:09;13.38;;;6.00;;
9783;SDS011;4931;44.874;-1.092;2023-02-10T16:54:35;12.93;;;5.85;;
9783;SDS011;4931;44.874;-1.092;2023-02-10T16:57:00;13.23;;;5.97;;
9783;SDS011;4931;44.874;-1.092;2023-02-10T16:59:26;12.48;;;5.85;;